Stockholm, New Jersey
Current Conditions -  °F | °C
As of 12:53 PM on Tuesday 21 Oct 2014 (Local Time) from KFWN Reporting Station
Overcast Overcast  
Wind Chill: 58°   Ceiling: 5000
Heat Index: 58°   Visibility: 10mi
Dew Point: 49°   Wind: 8mph
Humidity: 72%   Direction: 30°NNE
Pressure: 29.88"   Gusts: NA
Location:  41.09°N, 74.52°W
Report Text: KFWN 211653Z AUTO 03007KT 10SM BKN050 OVC065 14/09 A2988 RMK AO2 SLP117 T01440094
Loading
Personal Weather Stations






























Interactive Weather Map
Tropical Storm Tracking
New forecast layout! Learn more

10-Day Weather Forecast

Advertisements
Track Severe Weather on mobile